Pantagruel — V7CL4 — position and weather

sailwx.info

Track history (hours):
 
Tides and Currents Weather Stations Pressure Air Temp Water Temp Dewpoint Dewpoint Depression Visibility Wind Speed Wind Dir Waves Ship Positions

Pantagruel

Last reported at 2018-Feb-15 16:49 UTC. Time now 2018-Feb-25 23:59 UTC.
Position N 25°09' E 122°20'.
Warning: this ship's position is 10 days out of date.

Length 289 m; draft 18.2 m.

Type: Cargo ship. MMSI: 538005281.

Date/timePositionNaut miles runAvg speedWind from/ knotsBaromVisibWave heightAir tempDewpointWater temp
2018-Feb-15 16:49N 25°09' E 122°20'511.7
2018-Feb-15 16:22N 25°04' E 122°19'412.2
2018-Feb-15 16:00N 24°60' E 122°18'612.7
2018-Feb-15 15:30N 24°53' E 122°16'712.7
2018-Feb-15 15:00N 24°47' E 122°15'712.7
2018-Feb-15 14:29N 24°41' E 122°13'612.3
2018-Feb-15 14:01N 24°35' E 122°11'711.9
2018-Feb-15 13:26N 24°29' E 122°09'511.7
2018-Feb-15 13:00N 24°24' E 122°08'611.5
2018-Feb-15 12:29N 24°18' E 122°06'611.3
2018-Feb-15 11:59N 24°12' E 122°04'511.1
2018-Feb-15 11:30N 24°07' E 122°03'7410.7
2018-Feb-15 04:34N 22°55' E 121°43'310.3
2018-Feb-15 04:16N 22°52' E 121°43'3010.7
2018-Feb-15 01:27N 22°24' E 121°30'2211.6
2018-Feb-14 23:35N 22°07' E 121°15'110.7
2018-Feb-14 23:30N 22°06' E 121°15'46010.0
2018-Feb-13 01:29N 15°03' E 118°07'6 7.4
2018-Feb-13 00:40N 14°59' E 118°02'1 7.1
2018-Feb-13 00:29N 14°58' E 118°01'4 7.2
2018-Feb-12 23:59N 14°56' E 117°58'3 7.1
2018-Feb-12 23:30N 14°54' E 117°55'4 7.0
2018-Feb-12 23:00N 14°52' E 117°52'5 7.3
2018-Feb-12 22:16N 14°49' E 117°47'15 7.6
2018-Feb-12 20:16N 14°40' E 117°35'3 7.5
2018-Feb-12 19:54N 14°38' E 117°33'  
2018-Feb-07 09:30N 01°07' E 103°32'5 9.4
2018-Feb-07 08:56N 01°10' E 103°27'7 9.5
2018-Feb-07 08:11N 01°14' E 103°21'  
Track history (hours):
 
Tides and Currents Weather Stations Pressure Air Temp Water Temp Dewpoint Dewpoint Depression Visibility Wind Speed Wind Dir Waves Ship Positions

Pantagruel

Last reported at 2018-Feb-15 16:49 UTC. Time now 2018-Feb-25 23:59 UTC.
Position N 25°09' E 122°20'.
Warning: this ship's position is 10 days out of date.

Length 289 m; draft 18.2 m.

Type: Cargo ship. MMSI: 538005281.

Date/timePositionNaut miles runAvg speedWind from/ knotsBaromVisibWave heightAir tempDewpointWater temp
2018-Feb-15 16:49N 25°09' E 122°20'511.7
2018-Feb-15 16:22N 25°04' E 122°19'412.2
2018-Feb-15 16:00N 24°60' E 122°18'612.7
2018-Feb-15 15:30N 24°53' E 122°16'712.7
2018-Feb-15 15:00N 24°47' E 122°15'712.7
2018-Feb-15 14:29N 24°41' E 122°13'612.3
2018-Feb-15 14:01N 24°35' E 122°11'711.9
2018-Feb-15 13:26N 24°29' E 122°09'511.7
2018-Feb-15 13:00N 24°24' E 122°08'611.5
2018-Feb-15 12:29N 24°18' E 122°06'611.3
2018-Feb-15 11:59N 24°12' E 122°04'511.1
2018-Feb-15 11:30N 24°07' E 122°03'7410.7
2018-Feb-15 04:34N 22°55' E 121°43'310.3
2018-Feb-15 04:16N 22°52' E 121°43'3010.7
2018-Feb-15 01:27N 22°24' E 121°30'2211.6
2018-Feb-14 23:35N 22°07' E 121°15'110.7
2018-Feb-14 23:30N 22°06' E 121°15'46010.0
2018-Feb-13 01:29N 15°03' E 118°07'6 7.4
2018-Feb-13 00:40N 14°59' E 118°02'1 7.1
2018-Feb-13 00:29N 14°58' E 118°01'4 7.2
2018-Feb-12 23:59N 14°56' E 117°58'3 7.1
2018-Feb-12 23:30N 14°54' E 117°55'4 7.0
2018-Feb-12 23:00N 14°52' E 117°52'5 7.3
2018-Feb-12 22:16N 14°49' E 117°47'15 7.6
2018-Feb-12 20:16N 14°40' E 117°35'3 7.5
2018-Feb-12 19:54N 14°38' E 117°33'  
2018-Feb-07 09:30N 01°07' E 103°32'5 9.4
2018-Feb-07 08:56N 01°10' E 103°27'7 9.5
2018-Feb-07 08:11N 01°14' E 103°21'  

Dump ship's entire track history